createdAt,value
2023-01-17T00:02:11.410Z,0.80
2023-01-17T00:06:11.797Z,0.80
2023-01-17T00:09:53.699Z,0.80
2023-01-17T00:13:35.546Z,0.70
2023-01-17T00:17:17.390Z,0.70
2023-01-17T00:21:17.778Z,0.70
2023-01-17T00:25:18.321Z,0.70
2023-01-17T00:29:00.093Z,0.60
2023-01-17T00:32:41.922Z,0.60
2023-01-17T00:36:23.725Z,0.40
2023-01-17T00:40:06.109Z,0.30
2023-01-17T00:44:06.413Z,0.30
2023-01-17T00:48:06.716Z,0.20
2023-01-17T00:52:07.238Z,0.30
2023-01-17T00:56:08.259Z,0.30
2023-01-17T01:00:08.772Z,0.20
2023-01-17T01:04:09.237Z,0.30
2023-01-17T01:08:09.733Z,0.20
2023-01-17T01:12:10.377Z,0.10
2023-01-17T01:16:10.962Z,0.00
2023-01-17T01:20:11.190Z,0.00
2023-01-17T01:24:11.693Z,0.00
2023-01-17T01:28:12.378Z,0.00
2023-01-17T01:32:12.675Z,0.00
2023-01-17T01:35:55.488Z,0.00
2023-01-17T01:39:37.352Z,-0.10
2023-01-17T01:43:21.828Z,-0.10
2023-01-17T01:47:03.704Z,-0.10
2023-01-17T01:50:48.131Z,-0.10
2023-01-17T01:54:34.957Z,-0.10
2023-01-17T01:58:24.451Z,-0.10
2023-01-17T02:02:07.512Z,-0.10
2023-01-17T02:05:49.625Z,-0.10
2023-01-17T02:09:31.524Z,-0.10
2023-01-17T02:13:16.638Z,-0.20
2023-01-17T02:17:04.157Z,-0.30
2023-01-17T02:20:57.140Z,-0.30
2023-01-17T02:24:53.490Z,-0.40
2023-01-17T02:28:47.535Z,-0.50
2023-01-17T02:33:06.217Z,-0.50
2023-01-17T02:37:08.194Z,-0.60
2023-01-17T02:40:55.694Z,-0.60
2023-01-17T02:44:42.250Z,-0.60
2023-01-17T02:48:27.425Z,-0.60
2023-01-17T02:52:14.879Z,-0.50
2023-01-17T02:56:18.055Z,-0.50
2023-01-17T03:00:14.162Z,-0.60
2023-01-17T03:04:04.787Z,-0.60
2023-01-17T03:07:48.404Z,-0.60
2023-01-17T03:11:30.320Z,-0.60
2023-01-17T03:15:14.246Z,-0.60
2023-01-17T03:18:56.149Z,-0.60
2023-01-17T03:22:38.011Z,-0.60
2023-01-17T03:26:19.828Z,-0.60
2023-01-17T03:30:02.005Z,-0.60
2023-01-17T03:33:43.901Z,-0.50
2023-01-17T03:37:25.745Z,-0.60
2023-01-17T03:41:07.908Z,-0.60
2023-01-17T03:44:49.754Z,-0.60
2023-01-17T03:48:31.623Z,-0.70
2023-01-17T03:52:13.575Z,-0.70
2023-01-17T03:55:55.373Z,-0.80
2023-01-17T03:59:37.229Z,-0.70
2023-01-17T04:03:19.126Z,-0.70
2023-01-17T04:07:01.141Z,-0.80
2023-01-17T04:10:42.978Z,-0.70
2023-01-17T04:14:24.838Z,-0.70
2023-01-17T04:18:07.193Z,-0.70
2023-01-17T04:21:49.276Z,-0.70
2023-01-17T04:25:31.257Z,-0.70
2023-01-17T04:29:13.094Z,-0.70
2023-01-17T04:32:55.480Z,-0.70
2023-01-17T04:36:38.035Z,-0.70
2023-01-17T04:40:20.080Z,-0.60
2023-01-17T04:44:02.243Z,-0.60
2023-01-17T04:47:44.085Z,-0.60
2023-01-17T04:51:25.983Z,-0.60
2023-01-17T04:55:08.457Z,-0.60
2023-01-17T04:58:50.287Z,-0.60
2023-01-17T05:02:32.312Z,-0.60
2023-01-17T05:06:14.153Z,-0.70
2023-01-17T05:09:56.092Z,-0.70
2023-01-17T05:13:37.961Z,-0.60
2023-01-17T05:17:20.235Z,-0.70
2023-01-17T05:21:03.831Z,-0.80
2023-01-17T05:24:47.237Z,-0.90
2023-01-17T05:28:29.243Z,-1.00
2023-01-17T05:32:11.549Z,-1.00
2023-01-17T05:35:53.418Z,-1.10
2023-01-17T05:39:35.259Z,-1.10
2023-01-17T05:43:17.492Z,-1.10
2023-01-17T05:46:59.601Z,-1.10
2023-01-17T05:50:41.448Z,-1.10
2023-01-17T05:54:23.306Z,-1.20
2023-01-17T05:58:06.315Z,-1.20
2023-01-17T06:01:48.223Z,-1.10
2023-01-17T06:05:31.081Z,-1.20
2023-01-17T06:09:12.895Z,-1.20
2023-01-17T06:13:22.089Z,-1.10
2023-01-17T06:17:04.781Z,-1.10
2023-01-17T06:20:52.060Z,-1.10
2023-01-17T06:24:34.103Z,-1.10
2023-01-17T06:28:18.641Z,-1.10
2023-01-17T06:32:01.751Z,-1.20
2023-01-17T06:35:50.793Z,-1.20
2023-01-17T06:39:32.776Z,-1.20
2023-01-17T06:43:14.719Z,-1.20
2023-01-17T06:46:56.585Z,-1.20
2023-01-17T06:50:38.616Z,-1.10
2023-01-17T06:54:20.516Z,-1.20
2023-01-17T06:58:03.158Z,-1.20
2023-01-17T07:01:45.231Z,-1.10
2023-01-17T07:05:28.590Z,-1.10
2023-01-17T07:09:10.432Z,-1.00
2023-01-17T07:12:57.552Z,-1.00
2023-01-17T07:16:39.397Z,-1.00
2023-01-17T07:20:21.402Z,-1.00
2023-01-17T07:24:03.262Z,-0.90
2023-01-17T07:27:45.103Z,-1.00
2023-01-17T07:31:26.976Z,-1.00
2023-01-17T07:35:09.171Z,-0.90
2023-01-17T07:38:50.976Z,-0.90
2023-01-17T07:42:32.840Z,-0.90
2023-01-17T07:46:17.485Z,-0.80
2023-01-17T07:50:01.556Z,-0.80
2023-01-17T07:53:43.397Z,-0.80
2023-01-17T07:57:25.338Z,-0.80
2023-01-17T08:01:09.953Z,-0.90
2023-01-17T08:04:51.943Z,-0.90
2023-01-17T08:08:33.941Z,-0.90
2023-01-17T08:12:15.888Z,-0.90
2023-01-17T08:15:57.859Z,-0.90
2023-01-17T08:19:39.782Z,-0.90
2023-01-17T08:23:22.097Z,-0.90
2023-01-17T08:27:04.406Z,-0.90
2023-01-17T08:30:46.418Z,-0.90
2023-01-17T08:34:28.391Z,-0.80
2023-01-17T08:38:10.263Z,-0.80
2023-01-17T08:41:52.104Z,-0.70
2023-01-17T08:45:34.041Z,-0.70
2023-01-17T08:49:16.127Z,-0.60
2023-01-17T08:53:01.112Z,-0.60
2023-01-17T08:56:43.369Z,-0.70
2023-01-17T09:00:25.441Z,-0.80
2023-01-17T09:04:10.956Z,-0.70
2023-01-17T09:07:52.965Z,-0.70
2023-01-17T09:11:34.945Z,-0.70
2023-01-17T09:15:20.199Z,-0.60
2023-01-17T09:19:02.104Z,-0.60
2023-01-17T09:22:45.985Z,-0.50
2023-01-17T09:26:29.600Z,-0.40
2023-01-17T09:30:11.840Z,-0.40
2023-01-17T09:33:54.995Z,-0.40
2023-01-17T09:37:36.898Z,-0.30
2023-01-17T09:41:24.007Z,-0.20
2023-01-17T09:45:16.394Z,-0.20
2023-01-17T09:49:04.129Z,-0.20
2023-01-17T09:52:46.448Z,-0.20
2023-01-17T09:56:48.972Z,-0.10
2023-01-17T10:00:59.890Z,-0.10
2023-01-17T10:04:41.792Z,-0.10
2023-01-17T10:08:57.651Z,-0.10
2023-01-17T10:13:01.234Z,0.00
2023-01-17T10:17:04.719Z,0.00
2023-01-17T10:20:56.587Z,0.00
2023-01-17T10:25:13.217Z,0.10
2023-01-17T10:29:04.971Z,0.20
2023-01-17T10:32:49.795Z,0.20
2023-01-17T10:36:38.697Z,0.20
2023-01-17T10:40:52.751Z,0.20
2023-01-17T10:44:40.551Z,0.20
2023-01-17T10:48:38.845Z,0.30
2023-01-17T10:52:23.375Z,0.30
2023-01-17T10:56:05.729Z,0.30
2023-01-17T10:59:47.644Z,0.30
2023-01-17T11:03:29.785Z,0.30
2023-01-17T11:07:23.871Z,0.40
2023-01-17T11:11:05.784Z,0.40
2023-01-17T11:14:54.668Z,0.50
2023-01-17T11:18:39.153Z,0.60
2023-01-17T11:22:22.057Z,0.60
2023-01-17T11:26:07.686Z,0.60
2023-01-17T11:30:15.980Z,0.70
2023-01-17T11:34:16.179Z,0.70
2023-01-17T11:38:02.824Z,0.80
2023-01-17T11:41:47.778Z,0.80
2023-01-17T11:45:32.626Z,0.90
2023-01-17T11:49:25.447Z,0.90
2023-01-17T11:53:25.391Z,1.00
2023-01-17T11:57:36.908Z,1.00
2023-01-17T12:01:39.137Z,1.10
2023-01-17T12:05:42.811Z,1.20
2023-01-17T12:09:46.817Z,1.30
2023-01-17T12:14:02.001Z,1.50
2023-01-17T12:18:24.680Z,1.70
2023-01-17T12:22:25.072Z,1.80
2023-01-17T12:26:37.659Z,2.00
2023-01-17T12:30:47.172Z,2.10
2023-01-17T12:34:50.847Z,2.10
2023-01-17T12:38:39.102Z,2.20
2023-01-17T12:42:29.708Z,2.20
2023-01-17T12:46:38.582Z,2.30
2023-01-17T12:50:44.682Z,2.40
2023-01-17T12:54:55.937Z,2.60
2023-01-17T12:58:45.358Z,2.90
2023-01-17T13:02:44.253Z,3.10
2023-01-17T13:06:52.071Z,3.40
2023-01-17T13:10:41.423Z,3.80
2023-01-17T13:14:23.515Z,4.20
2023-01-17T13:18:23.223Z,4.70
2023-01-17T13:22:08.841Z,5.00
2023-01-17T13:25:51.172Z,5.30
2023-01-17T13:29:52.339Z,5.40
2023-01-17T13:34:09.875Z,5.40
2023-01-17T13:38:06.247Z,5.30
2023-01-17T13:41:54.890Z,5.30
2023-01-17T13:45:38.716Z,5.30
2023-01-17T13:49:40.791Z,5.20
2023-01-17T13:53:28.972Z,5.00
2023-01-17T13:57:46.646Z,4.80
2023-01-17T14:01:38.679Z,4.60
2023-01-17T14:05:41.906Z,4.50
2023-01-17T14:09:31.265Z,4.30
2023-01-17T14:13:31.665Z,4.20
2023-01-17T14:17:16.349Z,4.00
2023-01-17T14:21:23.059Z,3.80
2023-01-17T14:25:17.728Z,3.60
2023-01-17T14:29:48.540Z,3.50
2023-01-17T14:33:36.144Z,3.30
2023-01-17T14:37:24.669Z,3.20
2023-01-17T14:41:09.679Z,3.10
2023-01-17T14:45:13.751Z,3.00
2023-01-17T14:49:07.450Z,2.90
2023-01-17T14:53:17.389Z,2.80
2023-01-17T14:57:28.524Z,2.70
2023-01-17T15:01:14.727Z,2.70
2023-01-17T15:04:56.705Z,2.70
2023-01-17T15:08:38.806Z,2.60
2023-01-17T15:12:21.536Z,2.60
2023-01-17T15:16:08.719Z,2.60
2023-01-17T15:19:57.157Z,2.60
2023-01-17T15:23:44.259Z,2.60
2023-01-17T15:27:26.852Z,2.60
2023-01-17T15:31:19.985Z,2.60
2023-01-17T15:35:03.069Z,2.50
2023-01-17T15:39:00.295Z,2.50
2023-01-17T15:42:44.183Z,2.50
2023-01-17T15:46:41.197Z,2.50
2023-01-17T15:50:30.263Z,2.40
2023-01-17T15:54:35.264Z,2.40
2023-01-17T15:58:28.505Z,2.30
2023-01-17T16:02:36.614Z,2.20
2023-01-17T16:06:45.692Z,2.20
2023-01-17T16:10:32.363Z,2.10
2023-01-17T16:14:14.305Z,2.10
2023-01-17T16:17:57.941Z,2.00
2023-01-17T16:21:39.896Z,1.90
2023-01-17T16:25:23.951Z,1.80
2023-01-17T16:29:07.572Z,1.70
2023-01-17T16:32:50.029Z,1.60
2023-01-17T16:36:31.889Z,1.50
2023-01-17T16:40:15.268Z,1.40
2023-01-17T16:44:02.512Z,1.30
2023-01-17T16:47:46.137Z,1.30
2023-01-17T16:51:28.044Z,1.20
2023-01-17T16:55:14.303Z,1.10
2023-01-17T16:58:56.624Z,1.10
2023-01-17T17:02:40.840Z,1.00
2023-01-17T17:06:22.920Z,1.00
2023-01-17T17:10:05.259Z,0.90
2023-01-17T17:13:49.188Z,0.90
2023-01-17T17:17:35.921Z,0.80
2023-01-17T17:21:17.799Z,0.80
2023-01-17T17:24:59.810Z,0.70
2023-01-17T17:28:41.701Z,0.70
2023-01-17T17:32:24.057Z,0.60
2023-01-17T17:36:08.180Z,0.60
2023-01-17T17:39:50.185Z,0.60
2023-01-17T17:43:39.087Z,0.50
2023-01-17T17:47:21.042Z,0.40
2023-01-17T17:51:04.111Z,0.40
2023-01-17T17:54:45.976Z,0.30
2023-01-17T17:58:27.824Z,0.30
2023-01-17T18:02:11.507Z,0.30
2023-01-17T18:05:53.449Z,0.20
2023-01-17T18:09:35.337Z,0.10
2023-01-17T18:13:17.155Z,0.20
2023-01-17T18:16:59.054Z,0.20
2023-01-17T18:20:40.933Z,0.20
2023-01-17T18:24:24.602Z,0.20
2023-01-17T18:28:06.445Z,0.20
2023-01-17T18:31:52.949Z,0.30
2023-01-17T18:35:34.908Z,0.30
2023-01-17T18:39:19.461Z,0.30
2023-01-17T18:43:01.317Z,0.20
2023-01-17T18:46:43.673Z,0.20
2023-01-17T18:50:26.809Z,0.20
2023-01-17T18:54:08.998Z,0.20
2023-01-17T18:57:50.911Z,0.20
2023-01-17T19:01:35.786Z,0.30
2023-01-17T19:05:21.577Z,0.30
2023-01-17T19:09:04.659Z,0.30
2023-01-17T19:12:46.981Z,0.30
2023-01-17T19:16:31.242Z,0.30
2023-01-17T19:20:13.362Z,0.30
2023-01-17T19:23:56.331Z,0.40
2023-01-17T19:27:38.201Z,0.40
2023-01-17T19:31:22.853Z,0.30
2023-01-17T19:35:05.063Z,0.30
2023-01-17T19:39:03.075Z,0.30
2023-01-17T19:42:46.651Z,0.30
2023-01-17T19:46:29.000Z,0.30
2023-01-17T19:50:12.540Z,0.30
2023-01-17T19:53:55.068Z,0.30
2023-01-17T19:57:37.639Z,0.30
2023-01-17T20:01:24.025Z,0.30
2023-01-17T20:05:06.574Z,0.30
2023-01-17T20:08:48.834Z,0.30
2023-01-17T20:12:31.179Z,0.30
2023-01-17T20:16:15.511Z,0.30
2023-01-17T20:19:57.524Z,0.30
2023-01-17T20:23:46.852Z,0.40
2023-01-17T20:27:28.741Z,0.50
2023-01-17T20:31:16.404Z,0.40
2023-01-17T20:34:58.356Z,0.50
2023-01-17T20:38:46.389Z,0.50
2023-01-17T20:42:28.313Z,0.50
2023-01-17T20:46:10.951Z,0.50
2023-01-17T20:49:52.883Z,0.60
2023-01-17T20:53:35.244Z,0.60
2023-01-17T20:57:17.113Z,0.70
2023-01-17T21:00:59.374Z,0.70
2023-01-17T21:04:41.444Z,0.70
2023-01-17T21:08:23.417Z,0.70
2023-01-17T21:12:05.459Z,0.70
2023-01-17T21:15:49.725Z,0.60
2023-01-17T21:19:31.650Z,0.60
2023-01-17T21:23:29.170Z,0.60
2023-01-17T21:27:12.900Z,0.50
2023-01-17T21:30:55.285Z,0.50
2023-01-17T21:34:37.303Z,0.50
2023-01-17T21:38:19.489Z,0.60
2023-01-17T21:42:01.425Z,0.50
2023-01-17T21:45:43.384Z,0.60
2023-01-17T21:49:25.346Z,0.50
2023-01-17T21:53:10.034Z,0.50
2023-01-17T21:57:10.549Z,0.50
2023-01-17T22:01:07.699Z,0.50
2023-01-17T22:04:49.950Z,0.50
2023-01-17T22:08:35.410Z,0.40
2023-01-17T22:12:17.343Z,0.40
2023-01-17T22:16:01.211Z,0.50
2023-01-17T22:19:43.153Z,0.50
2023-01-17T22:23:25.105Z,0.40
2023-01-17T22:27:10.563Z,0.40
2023-01-17T22:30:52.486Z,0.40
2023-01-17T22:34:34.463Z,0.50
2023-01-17T22:38:16.783Z,0.50
2023-01-17T22:41:59.378Z,0.50
2023-01-17T22:45:41.215Z,0.50
2023-01-17T22:49:23.615Z,0.60
2023-01-17T22:53:05.485Z,0.60
2023-01-17T22:56:48.703Z,0.70
2023-01-17T23:00:31.603Z,0.60
2023-01-17T23:04:16.044Z,0.70
2023-01-17T23:07:57.977Z,0.60
2023-01-17T23:11:43.407Z,0.60
2023-01-17T23:15:45.728Z,0.60
2023-01-17T23:19:30.453Z,0.60
2023-01-17T23:23:12.281Z,0.60
2023-01-17T23:27:12.694Z,0.60
2023-01-17T23:30:54.637Z,0.60
2023-01-17T23:34:36.557Z,0.70
2023-01-17T23:38:33.903Z,0.60
2023-01-17T23:42:38.933Z,0.60
2023-01-17T23:46:21.335Z,0.60
2023-01-17T23:50:03.289Z,0.60
2023-01-17T23:53:45.159Z,0.60
2023-01-17T23:57:27.000Z,0.60
